createdAt,value
2018-01-30T01:12:41.062Z,4.60
2018-01-30T01:15:07.631Z,5.10
2018-01-30T01:17:34.205Z,4.30
2018-01-30T01:20:00.799Z,4.43
2018-01-30T01:22:27.367Z,4.57
2018-01-30T01:24:53.931Z,5.00
2018-01-30T01:27:20.528Z,5.70
2018-01-30T01:29:47.094Z,4.60
2018-01-30T01:32:13.671Z,3.80
2018-01-30T01:34:40.279Z,4.30
2018-01-30T01:37:06.850Z,5.13
2018-01-30T01:39:33.423Z,4.37
2018-01-30T01:42:00.024Z,4.60
2018-01-30T01:44:26.660Z,5.00
2018-01-30T01:46:53.166Z,4.53
2018-01-30T01:49:25.618Z,4.30
2018-01-30T01:51:52.191Z,4.57
2018-01-30T01:54:18.783Z,4.43
2018-01-30T01:56:45.353Z,4.73
2018-01-30T01:59:11.921Z,4.03
2018-01-30T02:01:38.678Z,3.60
2018-01-30T02:04:05.250Z,3.73
2018-01-30T02:06:31.831Z,4.10
2018-01-30T02:08:58.425Z,6.10
2018-01-30T02:11:24.994Z,8.57
2018-01-30T02:13:51.569Z,5.90
2018-01-30T02:16:18.135Z,4.90
2018-01-30T02:18:44.703Z,3.43
2018-01-30T02:21:11.517Z,4.13
2018-01-30T02:23:38.086Z,3.60
2018-01-30T02:26:04.673Z,4.10
2018-01-30T02:28:31.239Z,3.93
2018-01-30T02:30:57.806Z,3.93
2018-01-30T02:33:24.378Z,5.70
2018-01-30T02:35:50.978Z,3.80
2018-01-30T02:38:17.539Z,5.00
2018-01-30T02:40:44.125Z,4.27
2018-01-30T02:43:10.711Z,3.73
2018-01-30T02:45:37.278Z,4.20
2018-01-30T02:48:03.846Z,3.50
2018-01-30T02:50:30.750Z,4.33
2018-01-30T02:52:57.327Z,3.77
2018-01-30T02:55:23.902Z,4.17
2018-01-30T02:57:50.510Z,3.60
2018-01-30T03:00:17.088Z,4.13
2018-01-30T03:02:43.667Z,4.03
2018-01-30T03:05:10.245Z,4.77
2018-01-30T03:07:36.815Z,3.97
2018-01-30T03:10:03.383Z,4.40
2018-01-30T03:12:29.951Z,3.70
2018-01-30T03:14:56.564Z,4.53
2018-01-30T03:17:23.137Z,4.27
2018-01-30T03:19:49.705Z,4.07
2018-01-30T03:22:16.314Z,4.20
2018-01-30T03:24:42.882Z,3.37
2018-01-30T03:27:09.458Z,3.87
2018-01-30T03:29:36.038Z,4.10
2018-01-30T03:32:02.847Z,4.67
2018-01-30T03:34:29.425Z,4.27
2018-01-30T03:36:55.994Z,5.33
2018-01-30T03:39:22.578Z,4.83
2018-01-30T03:41:49.159Z,5.17
2018-01-30T03:44:15.915Z,3.70
2018-01-30T03:46:42.489Z,5.73
2018-01-30T03:49:09.063Z,5.80
2018-01-30T03:51:35.643Z,4.10
2018-01-30T03:54:02.218Z,12.97
2018-01-30T03:56:29.056Z,5.10
2018-01-30T03:58:55.622Z,4.20
2018-01-30T04:01:22.201Z,3.90
2018-01-30T04:03:49.000Z,4.53
2018-01-30T04:06:15.541Z,4.10
2018-01-30T04:08:42.131Z,3.67
2018-01-30T04:11:08.702Z,4.10
2018-01-30T04:13:35.274Z,3.70
2018-01-30T04:16:02.187Z,4.17
2018-01-30T04:18:28.768Z,3.87
2018-01-30T04:20:55.335Z,4.83
2018-01-30T04:23:22.031Z,3.97
2018-01-30T04:25:48.602Z,3.73
2018-01-30T04:28:15.174Z,3.47
2018-01-30T04:30:41.999Z,4.33
2018-01-30T04:33:08.899Z,3.40
2018-01-30T04:35:35.478Z,3.93
2018-01-30T04:38:02.831Z,3.80
2018-01-30T04:40:29.407Z,3.00
2018-01-30T04:42:55.985Z,4.10
2018-01-30T04:45:22.685Z,4.10
2018-01-30T04:47:49.259Z,3.80
2018-01-30T04:50:15.826Z,3.80
2018-01-30T04:52:42.426Z,4.60
2018-01-30T04:55:08.998Z,4.20
2018-01-30T04:57:35.574Z,3.90
2018-01-30T05:00:02.173Z,4.63
2018-01-30T05:02:28.746Z,4.40
2018-01-30T05:04:55.323Z,5.30
2018-01-30T05:07:21.898Z,4.23
2018-01-30T05:09:48.470Z,4.50
2018-01-30T05:12:15.043Z,4.77
2018-01-30T05:14:41.650Z,5.10
2018-01-30T05:17:08.230Z,4.50
2018-01-30T05:19:34.804Z,5.00
2018-01-30T05:22:01.410Z,4.60
2018-01-30T05:24:27.987Z,4.17
2018-01-30T05:26:54.559Z,3.90
2018-01-30T05:29:21.185Z,4.03
2018-01-30T05:31:47.755Z,4.13
2018-01-30T05:34:14.334Z,4.03
2018-01-30T05:36:40.914Z,3.77
2018-01-30T05:39:07.499Z,4.00
2018-01-30T05:41:34.066Z,4.23
2018-01-30T05:44:00.639Z,4.23
2018-01-30T05:46:27.218Z,4.00
2018-01-30T05:48:53.811Z,4.43
2018-01-30T05:51:20.389Z,4.17
2018-01-30T05:53:46.963Z,3.60
2018-01-30T05:56:13.570Z,3.83
2018-01-30T05:58:40.153Z,4.50
2018-01-30T06:01:06.735Z,4.10
2018-01-30T06:03:33.319Z,4.57
2018-01-30T06:05:59.890Z,3.93
2018-01-30T06:08:26.463Z,4.77
2018-01-30T06:10:53.055Z,4.83
2018-01-30T06:13:19.665Z,5.70
2018-01-30T06:15:46.204Z,5.33
2018-01-30T06:18:12.874Z,5.93
2018-01-30T06:20:39.458Z,4.97
2018-01-30T06:23:06.030Z,5.43
2018-01-30T06:25:32.607Z,4.57
2018-01-30T06:27:59.183Z,4.67
2018-01-30T06:30:25.963Z,4.90
2018-01-30T06:32:52.534Z,3.33
2018-01-30T06:35:19.111Z,4.73
2018-01-30T06:37:45.707Z,4.60
2018-01-30T06:40:12.282Z,4.37
2018-01-30T06:42:38.903Z,5.23
2018-01-30T06:45:05.478Z,4.30
2018-01-30T06:47:32.071Z,4.20
2018-01-30T06:49:58.646Z,3.63
2018-01-30T06:52:25.254Z,4.30
2018-01-30T06:54:51.831Z,3.97
2018-01-30T06:57:18.398Z,4.20
2018-01-30T06:59:44.993Z,4.80
2018-01-30T07:02:11.590Z,3.73
2018-01-30T07:04:38.166Z,3.63
2018-01-30T07:07:04.755Z,4.37
2018-01-30T07:09:31.328Z,3.47
2018-01-30T07:11:57.907Z,4.00
2018-01-30T07:14:24.778Z,3.70
2018-01-30T07:16:51.346Z,4.13
2018-01-30T07:19:17.920Z,3.40
2018-01-30T07:21:44.511Z,3.77
2018-01-30T07:24:11.090Z,4.00
2018-01-30T07:26:37.662Z,9.90
2018-01-30T07:29:04.259Z,4.37
2018-01-30T07:31:30.840Z,4.43
2018-01-30T07:33:57.435Z,4.53
2018-01-30T07:36:24.011Z,4.30
2018-01-30T07:38:50.575Z,4.03
2018-01-30T07:41:17.146Z,4.07
2018-01-30T07:43:43.751Z,4.00
2018-01-30T07:46:10.326Z,5.90
2018-01-30T07:48:36.898Z,5.03
2018-01-30T07:51:03.578Z,7.23
2018-01-30T07:53:30.156Z,6.00
2018-01-30T07:55:56.749Z,3.80
2018-01-30T07:58:23.331Z,4.50
2018-01-30T08:00:49.915Z,4.03
2018-01-30T08:03:16.504Z,12.70
2018-01-30T08:05:43.191Z,4.23
2018-01-30T08:08:09.758Z,5.73
2018-01-30T08:10:36.334Z,5.13
2018-01-30T08:13:03.318Z,4.57
2018-01-30T08:15:29.891Z,3.70
2018-01-30T08:17:56.467Z,3.97
2018-01-30T08:20:23.055Z,5.03
2018-01-30T08:22:49.638Z,5.53
2018-01-30T08:25:16.194Z,4.63
2018-01-30T08:27:43.034Z,6.20
2018-01-30T08:30:09.606Z,5.70
2018-01-30T08:32:36.186Z,4.93
2018-01-30T08:35:03.048Z,5.23
2018-01-30T08:37:29.626Z,4.17
2018-01-30T08:39:56.196Z,6.13
2018-01-30T08:42:22.861Z,7.37
2018-01-30T08:44:49.430Z,5.53
2018-01-30T08:47:16.010Z,4.80
2018-01-30T08:49:42.858Z,6.87
2018-01-30T08:52:09.437Z,6.50
2018-01-30T08:54:36.017Z,5.23
2018-01-30T08:57:02.770Z,4.67
2018-01-30T08:59:29.348Z,7.07
2018-01-30T09:01:55.921Z,5.67
2018-01-30T09:04:22.518Z,4.60
2018-01-30T09:06:49.089Z,6.07
2018-01-30T09:09:15.702Z,7.07
2018-01-30T09:11:42.259Z,5.50
2018-01-30T09:14:08.831Z,5.33
2018-01-30T09:16:35.402Z,5.10
2018-01-30T09:19:02.000Z,4.73
2018-01-30T09:21:28.574Z,4.10
2018-01-30T09:23:55.189Z,4.87
2018-01-30T09:26:21.741Z,3.77
2018-01-30T09:28:48.316Z,5.53
2018-01-30T09:31:14.887Z,4.90
2018-01-30T09:33:41.468Z,4.70
2018-01-30T09:36:08.037Z,4.83
2018-01-30T09:38:34.622Z,4.63
2018-01-30T09:41:01.191Z,4.90
2018-01-30T09:43:27.779Z,5.30
2018-01-30T09:45:54.353Z,5.33
2018-01-30T09:48:20.926Z,5.37
2018-01-30T09:50:47.522Z,5.57
2018-01-30T09:53:14.095Z,4.90
2018-01-30T09:55:40.666Z,5.00
2018-01-30T09:58:07.259Z,6.20
2018-01-30T10:00:33.844Z,5.30
2018-01-30T10:03:00.422Z,5.90
2018-01-30T10:05:27.023Z,5.80
2018-01-30T10:07:53.859Z,6.00
2018-01-30T10:10:20.430Z,6.33
2018-01-30T10:12:47.005Z,5.87
2018-01-30T10:15:13.842Z,5.67
2018-01-30T10:17:40.415Z,7.90
2018-01-30T10:20:06.989Z,6.17
2018-01-30T10:22:33.576Z,7.00
2018-01-30T10:25:00.147Z,6.37
2018-01-30T10:27:26.722Z,7.07
2018-01-30T10:29:53.395Z,5.80
2018-01-30T10:32:19.970Z,4.50
2018-01-30T10:34:46.542Z,5.53
2018-01-30T10:37:13.135Z,5.00
2018-01-30T10:39:39.721Z,4.70
2018-01-30T10:42:06.291Z,4.70
2018-01-30T10:44:32.866Z,5.43
2018-01-30T10:46:59.438Z,6.27
2018-01-30T10:49:26.050Z,5.90
2018-01-30T10:51:52.632Z,5.47
2018-01-30T10:54:19.203Z,5.97
2018-01-30T10:56:45.788Z,3.80
2018-01-30T10:59:12.364Z,3.90
2018-01-30T11:01:38.935Z,3.93
2018-01-30T11:04:05.527Z,5.17
2018-01-30T11:06:32.097Z,4.50
2018-01-30T11:08:58.667Z,3.90
2018-01-30T11:11:25.497Z,4.50
2018-01-30T11:13:52.063Z,3.87
2018-01-30T11:16:18.647Z,4.30
2018-01-30T11:18:46.180Z,4.17
2018-01-30T11:21:12.747Z,4.87
2018-01-30T11:23:39.319Z,4.30
2018-01-30T11:26:05.906Z,4.43
2018-01-30T11:28:32.477Z,4.80
2018-01-30T11:30:59.047Z,4.33
2018-01-30T11:33:25.729Z,4.30
2018-01-30T11:35:52.294Z,4.77
2018-01-30T11:38:18.885Z,4.10
2018-01-30T11:40:45.743Z,4.13
2018-01-30T11:43:12.324Z,3.97
2018-01-30T11:45:38.906Z,4.90
2018-01-30T11:48:05.495Z,4.60
2018-01-30T11:50:32.072Z,3.87
2018-01-30T11:52:58.664Z,4.30
2018-01-30T11:55:25.222Z,4.43
2018-01-30T11:57:51.805Z,4.50
2018-01-30T12:00:18.403Z,4.40
2018-01-30T12:02:44.970Z,4.50
2018-01-30T12:05:11.547Z,4.50
2018-01-30T12:07:38.224Z,4.30
2018-01-30T12:10:04.801Z,4.53
2018-01-30T12:12:31.368Z,4.43
2018-01-30T12:14:57.958Z,5.60
2018-01-30T12:17:24.535Z,4.80
2018-01-30T12:19:51.111Z,3.83
2018-01-30T12:22:17.820Z,7.27
2018-01-30T12:24:44.373Z,4.63
2018-01-30T12:27:10.947Z,4.40
2018-01-30T12:29:37.586Z,4.50
2018-01-30T12:32:04.139Z,5.00
2018-01-30T12:34:30.710Z,5.33
2018-01-30T12:36:57.305Z,3.67
2018-01-30T12:39:23.890Z,3.93
2018-01-30T12:41:50.464Z,4.00
2018-01-30T12:44:17.308Z,4.30
2018-01-30T12:46:43.874Z,3.97
2018-01-30T12:49:10.442Z,4.70
2018-01-30T12:51:37.367Z,3.83
2018-01-30T12:54:03.935Z,3.40
2018-01-30T12:59:03.524Z,4.03
2018-01-30T13:01:30.108Z,3.67
2018-01-30T13:03:56.679Z,4.20
2018-01-30T13:06:23.291Z,3.10
2018-01-30T13:08:49.858Z,3.00
2018-01-30T13:11:16.426Z,3.00
2018-01-30T13:13:43.266Z,4.00
2018-01-30T13:16:09.837Z,3.43
2018-01-30T13:18:36.422Z,3.20
2018-01-30T13:21:03.251Z,3.80
2018-01-30T13:23:29.818Z,4.80
2018-01-30T13:25:56.408Z,4.00
2018-01-30T13:28:23.091Z,4.23
2018-01-30T13:30:49.658Z,3.90
2018-01-30T13:33:16.230Z,3.43
2018-01-30T13:35:42.823Z,3.67
2018-01-30T13:38:09.399Z,3.80
2018-01-30T13:40:35.982Z,4.60
2018-01-30T13:43:02.559Z,3.63
2018-01-30T13:45:29.134Z,3.33
2018-01-30T13:47:55.719Z,4.20
2018-01-30T13:50:22.313Z,6.43
2018-01-30T13:52:48.879Z,3.77
2018-01-30T13:55:15.455Z,3.03
2018-01-30T13:57:42.030Z,4.50
2018-01-30T14:00:08.611Z,3.70
2018-01-30T14:02:35.185Z,4.43
2018-01-30T14:05:01.754Z,3.83
2018-01-30T14:07:28.350Z,3.37
2018-01-30T14:09:54.922Z,3.93
2018-01-30T14:12:21.492Z,4.67
2018-01-30T14:14:48.070Z,4.40
2018-01-30T14:17:14.635Z,3.60
2018-01-30T14:19:41.214Z,4.67
2018-01-30T14:22:08.114Z,3.33
2018-01-30T14:24:34.683Z,3.93
2018-01-30T14:27:01.259Z,4.23
2018-01-30T14:29:27.836Z,4.23
2018-01-30T14:31:54.410Z,4.37
2018-01-30T14:34:21.294Z,4.00
2018-01-30T14:36:47.874Z,3.93
2018-01-30T14:39:14.450Z,4.23
2018-01-30T14:41:41.306Z,4.30
2018-01-30T14:44:07.883Z,3.33
2018-01-30T14:46:34.452Z,3.30
2018-01-30T14:49:01.027Z,3.47
2018-01-30T14:51:27.610Z,3.30
2018-01-30T14:53:54.174Z,4.30
2018-01-30T14:56:20.788Z,3.90
2018-01-30T14:58:47.354Z,3.33
2018-01-30T15:01:13.925Z,3.67
2018-01-30T15:03:40.514Z,3.30
2018-01-30T15:06:07.092Z,4.13
2018-01-30T15:08:33.712Z,4.27
2018-01-30T15:11:00.318Z,3.70
2018-01-30T15:13:26.895Z,4.00
2018-01-30T15:15:53.507Z,2.80
2018-01-30T15:18:20.344Z,3.37
2018-01-30T15:20:46.923Z,3.50
2018-01-30T15:23:13.495Z,3.30
2018-01-30T15:25:40.078Z,3.47
2018-01-30T15:28:06.657Z,3.30
2018-01-30T15:30:33.236Z,4.10
2018-01-30T15:32:59.829Z,3.97
2018-01-30T15:35:26.403Z,3.20
2018-01-30T15:37:52.976Z,4.23
2018-01-30T15:40:19.555Z,3.67
2018-01-30T15:42:46.128Z,3.23
2018-01-30T15:45:13.027Z,4.00
2018-01-30T15:47:39.598Z,5.40
2018-01-30T15:50:06.174Z,3.80
2018-01-30T15:52:32.742Z,3.50
2018-01-30T15:54:59.354Z,4.70
2018-01-30T15:57:25.934Z,3.90
2018-01-30T15:59:52.519Z,5.00
2018-01-30T16:02:19.100Z,3.60
2018-01-30T16:04:45.671Z,3.90
2018-01-30T16:07:12.247Z,4.37
2018-01-30T16:09:38.857Z,4.40
2018-01-30T16:12:05.449Z,3.93
2018-01-30T16:14:32.006Z,3.93
2018-01-30T16:16:58.684Z,4.30
2018-01-30T16:19:25.267Z,4.93
2018-01-30T16:21:51.833Z,5.03
2018-01-30T16:24:18.693Z,4.37
2018-01-30T16:26:45.262Z,6.30
2018-01-30T16:29:11.831Z,5.27
2018-01-30T16:31:38.427Z,4.27
2018-01-30T16:34:04.999Z,4.23
2018-01-30T16:36:31.566Z,4.70
2018-01-30T16:38:58.252Z,4.10
2018-01-30T16:41:24.826Z,5.40
2018-01-30T16:43:51.399Z,4.30
2018-01-30T16:46:17.991Z,4.83
2018-01-30T16:48:44.563Z,4.80
2018-01-30T16:51:11.134Z,4.37
2018-01-30T16:53:37.909Z,4.40
2018-01-30T16:56:04.484Z,5.07
2018-01-30T16:58:31.062Z,4.93
2018-01-30T17:00:57.652Z,5.23
2018-01-30T17:03:24.231Z,4.70
2018-01-30T17:05:50.816Z,4.93
2018-01-30T17:08:17.403Z,5.37
2018-01-30T17:10:43.975Z,4.43
2018-01-30T17:13:10.555Z,5.50
2018-01-30T17:15:37.143Z,5.30
2018-01-30T17:18:03.711Z,4.07
2018-01-30T17:20:30.279Z,4.17
2018-01-30T17:22:56.868Z,4.60
2018-01-30T17:25:23.446Z,5.03
2018-01-30T17:27:50.017Z,4.97
2018-01-30T17:30:16.604Z,5.10
2018-01-30T17:32:43.179Z,5.00
2018-01-30T17:35:09.749Z,5.37
2018-01-30T17:37:36.326Z,4.30
2018-01-30T17:40:02.907Z,4.90
2018-01-30T17:42:29.479Z,5.17
2018-01-30T17:44:56.074Z,4.20
2018-01-30T17:47:22.651Z,6.17
2018-01-30T17:49:49.230Z,5.43
2018-01-30T17:52:15.803Z,4.67
2018-01-30T17:54:42.378Z,4.73
2018-01-30T17:57:08.951Z,5.30
2018-01-30T17:59:35.523Z,5.67
2018-01-30T18:02:02.287Z,4.23
2018-01-30T18:04:28.860Z,4.50
2018-01-30T18:06:55.431Z,5.23
2018-01-30T18:09:22.296Z,4.77
2018-01-30T18:11:48.871Z,6.23
2018-01-30T18:14:15.449Z,5.23
2018-01-30T18:16:42.032Z,5.13
2018-01-30T18:19:08.604Z,5.90
2018-01-30T18:21:35.170Z,5.40
2018-01-30T18:24:01.770Z,5.43
2018-01-30T18:26:28.339Z,4.23
2018-01-30T18:28:54.926Z,4.13
2018-01-30T18:31:21.606Z,4.93
2018-01-30T18:33:48.184Z,5.33
2018-01-30T18:36:14.886Z,4.60
2018-01-30T18:38:41.827Z,4.03
2018-01-30T18:41:08.407Z,4.90
2018-01-30T18:43:34.976Z,4.90
2018-01-30T18:46:01.572Z,4.20
2018-01-30T18:48:28.148Z,4.77
2018-01-30T18:50:54.710Z,4.03
2018-01-30T18:53:21.537Z,5.67
2018-01-30T18:55:48.106Z,5.37
2018-01-30T18:58:14.796Z,5.23
2018-01-30T19:00:41.366Z,5.07
2018-01-30T19:03:07.934Z,5.73
2018-01-30T19:05:34.520Z,5.77
2018-01-30T19:08:01.133Z,6.00
2018-01-30T19:10:27.704Z,7.10
2018-01-30T19:12:54.283Z,5.40
2018-01-30T19:15:20.859Z,6.10
2018-01-30T19:17:47.430Z,5.90
2018-01-30T19:20:14.007Z,7.13
2018-01-30T19:22:40.593Z,6.33
2018-01-30T19:25:07.168Z,5.30
2018-01-30T19:27:33.746Z,7.23
2018-01-30T19:30:00.338Z,6.37
2018-01-30T19:32:26.914Z,6.07
2018-01-30T19:34:53.483Z,6.23
2018-01-30T19:37:20.070Z,5.23
2018-01-30T19:39:46.642Z,6.60
2018-01-30T19:42:13.210Z,6.30
2018-01-30T19:44:39.800Z,5.73
2018-01-30T19:47:06.367Z,5.37
2018-01-30T19:49:32.939Z,5.93
2018-01-30T19:51:59.544Z,6.17
2018-01-30T19:54:26.119Z,7.40
2018-01-30T19:56:52.693Z,7.00
2018-01-30T19:59:19.282Z,7.07
2018-01-30T20:01:45.856Z,8.13
2018-01-30T20:04:12.433Z,7.97
2018-01-30T20:06:39.015Z,8.60
2018-01-30T20:09:05.596Z,9.70
2018-01-30T20:11:32.192Z,9.20
2018-01-30T20:13:58.769Z,8.50
2018-01-30T20:16:25.338Z,9.53
2018-01-30T20:18:52.167Z,10.33
2018-01-30T20:21:18.742Z,10.53
2018-01-30T20:23:48.054Z,10.30
2018-01-30T20:26:14.639Z,10.13
2018-01-30T20:28:41.224Z,12.37
2018-01-30T20:31:07.815Z,13.13
2018-01-30T20:33:34.390Z,12.50
2018-01-30T20:36:00.971Z,12.00
2018-01-30T20:38:27.926Z,14.03
2018-01-30T20:40:54.502Z,13.83
2018-01-30T20:43:21.078Z,14.90
2018-01-30T20:45:47.667Z,15.13
2018-01-30T20:48:14.297Z,15.07
2018-01-30T20:50:41.347Z,13.83
2018-01-30T20:53:07.939Z,13.63
2018-01-30T20:55:34.519Z,14.90
2018-01-30T20:58:01.094Z,15.10
2018-01-30T21:00:27.858Z,16.70
2018-01-30T21:02:54.445Z,15.37
2018-01-30T21:05:21.010Z,14.53
2018-01-30T21:07:47.599Z,15.37
2018-01-30T21:10:14.179Z,15.00
2018-01-30T21:12:40.802Z,16.00
2018-01-30T21:15:07.370Z,16.00
2018-01-30T21:17:34.655Z,17.33
2018-01-30T21:20:01.446Z,15.60
2018-01-30T21:22:28.018Z,16.00
2018-01-30T21:24:54.601Z,17.23
2018-01-30T21:27:21.283Z,15.67
2018-01-30T21:29:47.882Z,17.30
2018-01-30T21:32:14.461Z,16.03
2018-01-30T21:34:41.070Z,17.23
2018-01-30T21:37:07.647Z,18.37
2018-01-30T21:39:34.223Z,16.80
2018-01-30T21:42:00.822Z,17.80
2018-01-30T21:44:27.402Z,17.43
2018-01-30T21:46:53.986Z,18.30
2018-01-30T21:49:20.568Z,16.83
2018-01-30T21:51:47.147Z,18.20
2018-01-30T21:54:18.398Z,18.10
2018-01-30T21:56:40.330Z,17.70
2018-01-30T21:59:06.919Z,17.00
2018-01-30T22:01:33.847Z,17.50
2018-01-30T22:04:00.422Z,18.23
2018-01-30T22:06:27.007Z,17.87
2018-01-30T22:08:53.602Z,19.00
2018-01-30T22:11:20.189Z,18.63
2018-01-30T22:13:46.766Z,17.63
2018-01-30T22:16:13.364Z,17.50
2018-01-30T22:18:39.945Z,17.63
2018-01-30T22:21:06.523Z,19.27
2018-01-30T22:23:33.106Z,19.63
2018-01-30T22:25:59.687Z,19.60
2018-01-30T22:28:26.267Z,19.53
2018-01-30T22:30:52.862Z,21.13
2018-01-30T22:33:19.438Z,20.40
2018-01-30T22:35:46.018Z,22.10
2018-01-30T22:38:12.970Z,20.57
2018-01-30T22:40:39.550Z,24.80
2018-01-30T22:43:06.127Z,22.07
2018-01-30T22:45:32.986Z,21.50
